Terminal Aerodrome Forecast
Issued by NWS

Home | Current Version | Previous Version | Text Only | Print | Product List | Glossary On
Versions: 1 2 3 4 5 6 7 8 9 10 11 12 13 14 15 16 17 18 19
000
FTUS43 KGRB 300525
TAFAUW
TAF
KAUW 300525Z 3006/0106 09010G20KT P6SM BKN120
     FM301000 07012G18KT P6SM OVC080
     FM301300 06014G20KT 6SM -SHRA OVC035
     FM301700 05015G23KT 5SM -SHRA BR OVC018
     FM302300 07014G23KT 2SM -RA BR OVC008=

USA.gov is the U.S. government's official web portal to all federal, state and local government web resources and services.